sensor_id;sensor_type;location;lat;lon;timestamp;pressure;altitude;pressure_sealevel;temperature;humidity
72558;BME280;60583;50.094;8.748;2024-02-26T00:00:29;98610.09;;;6.95;76.32
72558;BME280;60583;50.094;8.748;2024-02-26T00:03:14;98610.25;;;7.00;75.78
72558;BME280;60583;50.094;8.748;2024-02-26T00:05:58;98590.22;;;6.86;77.07
72558;BME280;60583;50.094;8.748;2024-02-26T00:08:41;98581.22;;;6.69;77.18
72558;BME280;60583;50.094;8.748;2024-02-26T00:11:25;98623.97;;;6.97;76.78
72558;BME280;60583;50.094;8.748;2024-02-26T00:14:09;98601.84;;;6.85;77.49
72558;BME280;60583;50.094;8.748;2024-02-26T00:16:53;98596.34;;;6.86;77.94
72558;BME280;60583;50.094;8.748;2024-02-26T00:19:37;98601.28;;;7.01;77.83
72558;BME280;60583;50.094;8.748;2024-02-26T00:22:21;98597.81;;;7.00;79.05
72558;BME280;60583;50.094;8.748;2024-02-26T00:25:06;98579.50;;;6.99;77.18
72558;BME280;60583;50.094;8.748;2024-02-26T00:27:50;98573.31;;;7.05;75.86
72558;BME280;60583;50.094;8.748;2024-02-26T00:30:34;98602.75;;;7.15;75.52
72558;BME280;60583;50.094;8.748;2024-02-26T00:33:17;98581.94;;;7.19;74.83
72558;BME280;60583;50.094;8.748;2024-02-26T00:36:02;98588.78;;;7.26;75.65
72558;BME280;60583;50.094;8.748;2024-02-26T00:38:46;98574.69;;;7.26;75.45
72558;BME280;60583;50.094;8.748;2024-02-26T00:41:38;98569.50;;;7.37;73.92
72558;BME280;60583;50.094;8.748;2024-02-26T00:44:22;98565.63;;;7.33;74.18
72558;BME280;60583;50.094;8.748;2024-02-26T00:47:06;98552.81;;;7.30;74.08
72558;BME280;60583;50.094;8.748;2024-02-26T00:49:50;98564.19;;;7.37;73.84
72558;BME280;60583;50.094;8.748;2024-02-26T00:52:34;98561.97;;;7.34;73.58
72558;BME280;60583;50.094;8.748;2024-02-26T00:55:18;98529.88;;;7.06;73.71
72558;BME280;60583;50.094;8.748;2024-02-26T00:58:02;98526.13;;;7.32;74.00
72558;BME280;60583;50.094;8.748;2024-02-26T01:00:46;98523.09;;;7.28;73.72
72558;BME280;60583;50.094;8.748;2024-02-26T01:03:30;98531.19;;;7.33;74.35
72558;BME280;60583;50.094;8.748;2024-02-26T01:06:14;98524.13;;;7.27;74.39
72558;BME280;60583;50.094;8.748;2024-02-26T01:08:58;98541.50;;;7.23;73.89
72558;BME280;60583;50.094;8.748;2024-02-26T01:11:41;98554.47;;;7.31;74.91
72558;BME280;60583;50.094;8.748;2024-02-26T01:14:26;98528.09;;;7.18;74.76
72558;BME280;60583;50.094;8.748;2024-02-26T01:17:09;98563.66;;;7.29;74.76
72558;BME280;60583;50.094;8.748;2024-02-26T01:19:53;98537.84;;;7.24;74.27
72558;BME280;60583;50.094;8.748;2024-02-26T01:22:37;98503.38;;;7.06;75.59
72558;BME280;60583;50.094;8.748;2024-02-26T01:25:22;98560.19;;;7.28;75.03
72558;BME280;60583;50.094;8.748;2024-02-26T01:28:06;98563.44;;;7.30;74.90
72558;BME280;60583;50.094;8.748;2024-02-26T01:30:50;98559.75;;;7.31;75.62
72558;BME280;60583;50.094;8.748;2024-02-26T01:33:33;98552.38;;;7.33;75.40
72558;BME280;60583;50.094;8.748;2024-02-26T01:36:17;98574.94;;;7.24;76.28
72558;BME280;60583;50.094;8.748;2024-02-26T01:39:01;98564.03;;;7.32;74.74
72558;BME280;60583;50.094;8.748;2024-02-26T01:41:47;98508.31;;;7.02;75.31
72558;BME280;60583;50.094;8.748;2024-02-26T01:44:31;98531.88;;;7.11;75.48
72558;BME280;60583;50.094;8.748;2024-02-26T01:47:15;98552.81;;;7.30;75.30
72558;BME280;60583;50.094;8.748;2024-02-26T01:49:59;98569.50;;;7.37;75.61
72558;BME280;60583;50.094;8.748;2024-02-26T01:52:43;98543.03;;;7.31;75.76
72558;BME280;60583;50.094;8.748;2024-02-26T01:55:27;98544.66;;;7.32;75.44
72558;BME280;60583;50.094;8.748;2024-02-26T01:58:12;98539.13;;;7.33;75.17
72558;BME280;60583;50.094;8.748;2024-02-26T02:00:57;98573.28;;;7.41;74.27
72558;BME280;60583;50.094;8.748;2024-02-26T02:03:42;98535.59;;;7.39;75.34
72558;BME280;60583;50.094;8.748;2024-02-26T02:06:27;98552.31;;;7.40;75.41
72558;BME280;60583;50.094;8.748;2024-02-26T02:09:14;98498.66;;;7.26;74.16
72558;BME280;60583;50.094;8.748;2024-02-26T02:11:58;98477.16;;;7.16;75.02
72558;BME280;60583;50.094;8.748;2024-02-26T02:14:42;98499.25;;;7.10;75.05
72558;BME280;60583;50.094;8.748;2024-02-26T02:17:27;98538.94;;;7.17;75.64
72558;BME280;60583;50.094;8.748;2024-02-26T02:20:16;98513.69;;;7.14;74.99
72558;BME280;60583;50.094;8.748;2024-02-26T02:23:03;98575.16;;;7.23;75.45
72558;BME280;60583;50.094;8.748;2024-02-26T02:25:47;98533.56;;;7.05;75.74
72558;BME280;60583;50.094;8.748;2024-02-26T02:28:31;98565.50;;;7.28;75.59
72558;BME280;60583;50.094;8.748;2024-02-26T02:31:15;98555.81;;;7.22;75.28
72558;BME280;60583;50.094;8.748;2024-02-26T02:33:59;98571.75;;;7.34;75.93
72558;BME280;60583;50.094;8.748;2024-02-26T02:36:52;98571.72;;;7.22;75.81
72558;BME280;60583;50.094;8.748;2024-02-26T02:39:36;98552.09;;;7.23;76.29
72558;BME280;60583;50.094;8.748;2024-02-26T02:42:20;98568.59;;;7.25;76.87
72558;BME280;60583;50.094;8.748;2024-02-26T02:45:04;98581.41;;;7.28;75.25
72558;BME280;60583;50.094;8.748;2024-02-26T02:47:48;98584.63;;;7.30;76.28
72558;BME280;60583;50.094;8.748;2024-02-26T02:50:32;98560.72;;;7.19;76.97
72558;BME280;60583;50.094;8.748;2024-02-26T02:53:16;98572.50;;;7.23;77.46
72558;BME280;60583;50.094;8.748;2024-02-26T02:56:00;98555.50;;;7.12;77.18
72558;BME280;60583;50.094;8.748;2024-02-26T02:58:44;98540.09;;;7.21;75.14
72558;BME280;60583;50.094;8.748;2024-02-26T03:01:28;98564.19;;;7.19;75.02
72558;BME280;60583;50.094;8.748;2024-02-26T03:04:12;98574.66;;;7.32;74.81
72558;BME280;60583;50.094;8.748;2024-02-26T03:06:56;98591.84;;;7.41;74.47
72558;BME280;60583;50.094;8.748;2024-02-26T03:09:41;98593.19;;;7.32;74.78
72558;BME280;60583;50.094;8.748;2024-02-26T03:12:25;98560.78;;;7.30;74.95
72558;BME280;60583;50.094;8.748;2024-02-26T03:15:09;98583.47;;;7.44;74.58
72558;BME280;60583;50.094;8.748;2024-02-26T03:17:55;98579.28;;;7.37;76.68
72558;BME280;60583;50.094;8.748;2024-02-26T03:20:39;98586.84;;;7.33;77.40
72558;BME280;60583;50.094;8.748;2024-02-26T03:23:22;98560.16;;;7.17;78.64
72558;BME280;60583;50.094;8.748;2024-02-26T03:26:06;98596.50;;;7.28;78.52
72558;BME280;60583;50.094;8.748;2024-02-26T03:28:50;98614.13;;;7.22;78.34
72558;BME280;60583;50.094;8.748;2024-02-26T03:31:34;98554.03;;;6.98;78.47
72558;BME280;60583;50.094;8.748;2024-02-26T03:34:18;98588.09;;;7.13;78.50
72558;BME280;60583;50.094;8.748;2024-02-26T03:37:03;98596.56;;;7.21;79.49
72558;BME280;60583;50.094;8.748;2024-02-26T03:39:47;98561.53;;;7.01;79.42
72558;BME280;60583;50.094;8.748;2024-02-26T03:42:31;98599.81;;;7.23;78.88
72558;BME280;60583;50.094;8.748;2024-02-26T03:45:15;98541.06;;;6.90;79.25
72558;BME280;60583;50.094;8.748;2024-02-26T03:47:59;98585.84;;;7.34;77.73
72558;BME280;60583;50.094;8.748;2024-02-26T03:50:43;98567.28;;;7.16;78.58
72558;BME280;60583;50.094;8.748;2024-02-26T03:53:27;98560.81;;;7.12;79.12
72558;BME280;60583;50.094;8.748;2024-02-26T03:56:12;98588.34;;;7.29;79.53
72558;BME280;60583;50.094;8.748;2024-02-26T03:58:57;98602.47;;;7.23;80.33
72558;BME280;60583;50.094;8.748;2024-02-26T04:01:47;98559.91;;;7.00;79.96
72558;BME280;60583;50.094;8.748;2024-02-26T04:04:34;98593.78;;;7.16;79.78
72558;BME280;60583;50.094;8.748;2024-02-26T04:07:18;98575.47;;;7.15;77.85
72558;BME280;60583;50.094;8.748;2024-02-26T04:10:02;98592.16;;;7.33;77.85
72558;BME280;60583;50.094;8.748;2024-02-26T04:12:49;98578.69;;;7.17;77.17
72558;BME280;60583;50.094;8.748;2024-02-26T04:15:33;98599.53;;;7.31;76.42
72558;BME280;60583;50.094;8.748;2024-02-26T04:18:17;98597.16;;;7.41;76.56
72558;BME280;60583;50.094;8.748;2024-02-26T04:21:00;98558.16;;;7.12;76.31
72558;BME280;60583;50.094;8.748;2024-02-26T04:23:45;98603.28;;;7.42;76.34
72558;BME280;60583;50.094;8.748;2024-02-26T04:26:30;98591.56;;;7.31;76.16
72558;BME280;60583;50.094;8.748;2024-02-26T04:29:14;98608.06;;;7.33;75.68
72558;BME280;60583;50.094;8.748;2024-02-26T04:31:58;98601.59;;;7.29;75.87
72558;BME280;60583;50.094;8.748;2024-02-26T04:34:42;98593.63;;;7.29;76.00
72558;BME280;60583;50.094;8.748;2024-02-26T04:37:25;98596.88;;;7.31;76.44
72558;BME280;60583;50.094;8.748;2024-02-26T04:40:14;98604.97;;;7.36;76.62
72558;BME280;60583;50.094;8.748;2024-02-26T04:42:58;98584.06;;;7.10;76.86
72558;BME280;60583;50.094;8.748;2024-02-26T04:45:42;98601.28;;;7.19;76.48
72558;BME280;60583;50.094;8.748;2024-02-26T04:48:27;98547.56;;;6.94;76.06
72558;BME280;60583;50.094;8.748;2024-02-26T04:51:11;98595.41;;;7.17;77.42
72558;BME280;60583;50.094;8.748;2024-02-26T04:53:55;98589.66;;;7.20;77.03
72558;BME280;60583;50.094;8.748;2024-02-26T04:56:39;98600.72;;;7.17;77.15
72558;BME280;60583;50.094;8.748;2024-02-26T04:59:23;98599.09;;;7.16;77.24
72558;BME280;60583;50.094;8.748;2024-02-26T05:02:07;98602.03;;;7.08;77.69
72558;BME280;60583;50.094;8.748;2024-02-26T05:04:51;98619.16;;;7.05;78.67
72558;BME280;60583;50.094;8.748;2024-02-26T05:07:40;98596.13;;;6.88;78.35
72558;BME280;60583;50.094;8.748;2024-02-26T05:10:25;98602.75;;;6.97;77.89
72558;BME280;60583;50.094;8.748;2024-02-26T05:13:09;98620.41;;;7.03;78.75
72558;BME280;60583;50.094;8.748;2024-02-26T05:15:53;98599.16;;;6.91;78.52
72558;BME280;60583;50.094;8.748;2024-02-26T05:18:37;98609.91;;;6.96;79.27
72558;BME280;60583;50.094;8.748;2024-02-26T05:21:21;98630.50;;;7.13;79.61
72558;BME280;60583;50.094;8.748;2024-02-26T05:24:05;98604.94;;;7.00;80.05
72558;BME280;60583;50.094;8.748;2024-02-26T05:26:49;98631.28;;;7.20;79.96
72558;BME280;60583;50.094;8.748;2024-02-26T05:29:33;98622.34;;;7.14;80.15
72558;BME280;60583;50.094;8.748;2024-02-26T05:32:17;98625.00;;;7.32;79.92
72558;BME280;60583;50.094;8.748;2024-02-26T05:35:01;98627.53;;;7.27;80.93
72558;BME280;60583;50.094;8.748;2024-02-26T05:37:47;98634.84;;;7.25;80.82
72558;BME280;60583;50.094;8.748;2024-02-26T05:40:31;98632.22;;;7.25;80.70
72558;BME280;60583;50.094;8.748;2024-02-26T05:43:15;98622.34;;;7.14;80.38
72558;BME280;60583;50.094;8.748;2024-02-26T05:46:02;98615.94;;;7.03;81.51
72558;BME280;60583;50.094;8.748;2024-02-26T05:48:48;98623.66;;;7.05;82.00
72558;BME280;60583;50.094;8.748;2024-02-26T05:51:31;98612.44;;;6.85;81.48
72558;BME280;60583;50.094;8.748;2024-02-26T05:54:15;98652.59;;;7.06;82.68
72558;BME280;60583;50.094;8.748;2024-02-26T05:56:59;98630.00;;;7.04;82.64
72558;BME280;60583;50.094;8.748;2024-02-26T05:59:43;98631.25;;;7.01;83.61
72558;BME280;60583;50.094;8.748;2024-02-26T06:02:27;98633.31;;;6.99;83.47
72558;BME280;60583;50.094;8.748;2024-02-26T06:05:11;98603.00;;;6.71;83.40
72558;BME280;60583;50.094;8.748;2024-02-26T06:07:55;98648.59;;;6.97;83.57
72558;BME280;60583;50.094;8.748;2024-02-26T06:10:39;98640.88;;;6.96;84.68
72558;BME280;60583;50.094;8.748;2024-02-26T06:13:24;98648.91;;;7.07;85.41
72558;BME280;60583;50.094;8.748;2024-02-26T06:16:08;98631.00;;;7.03;85.74
72558;BME280;60583;50.094;8.748;2024-02-26T06:18:52;98635.13;;;6.99;86.19
72558;BME280;60583;50.094;8.748;2024-02-26T06:21:36;98624.59;;;6.92;86.28
72558;BME280;60583;50.094;8.748;2024-02-26T06:24:20;98651.28;;;7.16;84.95
72558;BME280;60583;50.094;8.748;2024-02-26T06:27:05;98657.50;;;7.03;84.61
72558;BME280;60583;50.094;8.748;2024-02-26T06:29:49;98668.34;;;7.01;86.26
72558;BME280;60583;50.094;8.748;2024-02-26T06:32:33;98663.75;;;6.90;86.54
72558;BME280;60583;50.094;8.748;2024-02-26T06:35:17;98678.41;;;6.93;86.41
72558;BME280;60583;50.094;8.748;2024-02-26T06:38:01;98644.53;;;6.77;86.05
72558;BME280;60583;50.094;8.748;2024-02-26T06:40:45;98695.50;;;6.97;86.58
72558;BME280;60583;50.094;8.748;2024-02-26T06:43:29;98686.19;;;6.88;86.48
72558;BME280;60583;50.094;8.748;2024-02-26T06:46:13;98701.97;;;7.01;86.30
72558;BME280;60583;50.094;8.748;2024-02-26T06:48:57;98677.00;;;6.66;86.94
72558;BME280;60583;50.094;8.748;2024-02-26T06:51:41;98691.59;;;6.75;86.29
72558;BME280;60583;50.094;8.748;2024-02-26T06:54:25;98671.78;;;6.53;86.38
72558;BME280;60583;50.094;8.748;2024-02-26T06:57:09;98672.22;;;6.50;88.20
72558;BME280;60583;50.094;8.748;2024-02-26T06:59:53;98712.44;;;6.65;88.28
72558;BME280;60583;50.094;8.748;2024-02-26T07:02:37;98695.75;;;6.64;89.11
72558;BME280;60583;50.094;8.748;2024-02-26T07:05:20;98698.56;;;6.69;88.35
72558;BME280;60583;50.094;8.748;2024-02-26T07:08:05;98708.69;;;6.79;89.08
72558;BME280;60583;50.094;8.748;2024-02-26T07:10:49;98688.44;;;6.60;89.36
72558;BME280;60583;50.094;8.748;2024-02-26T07:13:33;98716.66;;;6.72;90.31
72558;BME280;60583;50.094;8.748;2024-02-26T07:16:16;98712.41;;;6.71;91.80
72558;BME280;60583;50.094;8.748;2024-02-26T07:19:00;98700.66;;;6.61;90.60
72558;BME280;60583;50.094;8.748;2024-02-26T07:21:44;98726.28;;;6.67;92.65
72558;BME280;60583;50.094;8.748;2024-02-26T07:24:28;98745.38;;;6.75;91.24
72558;BME280;60583;50.094;8.748;2024-02-26T07:27:12;98739.00;;;6.83;90.83
72558;BME280;60583;50.094;8.748;2024-02-26T07:29:56;98717.56;;;6.60;91.57
72558;BME280;60583;50.094;8.748;2024-02-26T07:32:40;98718.22;;;6.55;92.40
72558;BME280;60583;50.094;8.748;2024-02-26T07:35:24;98741.72;;;6.76;93.64
72558;BME280;60583;50.094;8.748;2024-02-26T07:38:08;98731.75;;;6.72;95.61
72558;BME280;60583;50.094;8.748;2024-02-26T07:40:52;98742.91;;;7.05;98.28
72558;BME280;60583;50.094;8.748;2024-02-26T07:43:36;98734.44;;;6.65;94.69
72558;BME280;60583;50.094;8.748;2024-02-26T07:46:20;98765.31;;;6.78;96.31
72558;BME280;60583;50.094;8.748;2024-02-26T07:49:04;98752.31;;;6.70;97.99
72558;BME280;60583;50.094;8.748;2024-02-26T07:51:47;98761.06;;;6.77;99.17
72558;BME280;60583;50.094;8.748;2024-02-26T07:54:31;98759.19;;;6.84;100.00
72558;BME280;60583;50.094;8.748;2024-02-26T07:57:15;98727.81;;;6.81;100.00
72558;BME280;60583;50.094;8.748;2024-02-26T08:00:02;98753.78;;;6.97;98.02
72558;BME280;60583;50.094;8.748;2024-02-26T08:02:46;98701.97;;;6.52;98.69
72558;BME280;60583;50.094;8.748;2024-02-26T08:05:31;98773.06;;;6.79;99.78
72558;BME280;60583;50.094;8.748;2024-02-26T08:08:14;98746.19;;;6.76;98.71
72558;BME280;60583;50.094;8.748;2024-02-26T08:10:59;98736.06;;;6.66;98.96
72558;BME280;60583;50.094;8.748;2024-02-26T08:13:43;98754.69;;;6.84;99.76
72558;BME280;60583;50.094;8.748;2024-02-26T08:16:27;98785.44;;;6.85;99.03
72558;BME280;60583;50.094;8.748;2024-02-26T08:19:11;98769.44;;;6.74;99.26
72558;BME280;60583;50.094;8.748;2024-02-26T08:21:58;98780.97;;;6.86;100.00
72558;BME280;60583;50.094;8.748;2024-02-26T08:24:42;98775.06;;;6.84;99.58
72558;BME280;60583;50.094;8.748;2024-02-26T08:27:26;98763.25;;;6.80;98.50
72558;BME280;60583;50.094;8.748;2024-02-26T08:30:10;98763.88;;;6.82;98.90
72558;BME280;60583;50.094;8.748;2024-02-26T08:32:57;98757.38;;;6.78;99.37
72558;BME280;60583;50.094;8.748;2024-02-26T08:35:41;98765.78;;;6.68;100.00
72558;BME280;60583;50.094;8.748;2024-02-26T08:38:25;98768.56;;;6.80;100.00
72558;BME280;60583;50.094;8.748;2024-02-26T08:41:09;98739.81;;;6.52;100.00
72558;BME280;60583;50.094;8.748;2024-02-26T08:43:52;98774.91;;;6.79;100.00
72558;BME280;60583;50.094;8.748;2024-02-26T08:46:36;98766.38;;;6.77;100.00
72558;BME280;60583;50.094;8.748;2024-02-26T08:49:20;98796.97;;;6.97;100.00
72558;BME280;60583;50.094;8.748;2024-02-26T08:52:07;98792.22;;;7.06;100.00
72558;BME280;60583;50.094;8.748;2024-02-26T08:54:50;98756.72;;;6.82;100.00
72558;BME280;60583;50.094;8.748;2024-02-26T08:57:34;98738.84;;;6.78;100.00
72558;BME280;60583;50.094;8.748;2024-02-26T09:00:18;98747.81;;;6.77;100.00
72558;BME280;60583;50.094;8.748;2024-02-26T09:03:05;98792.50;;;6.98;100.00
72558;BME280;60583;50.094;8.748;2024-02-26T09:05:49;98774.25;;;6.83;100.00
72558;BME280;60583;50.094;8.748;2024-02-26T09:08:33;98790.22;;;7.01;100.00
72558;BME280;60583;50.094;8.748;2024-02-26T09:11:19;98759.59;;;6.81;100.00
72558;BME280;60583;50.094;8.748;2024-02-26T09:14:03;98779.81;;;7.06;100.00
72558;BME280;60583;50.094;8.748;2024-02-26T09:16:47;98784.72;;;7.03;100.00
72558;BME280;60583;50.094;8.748;2024-02-26T09:19:35;98763.00;;;6.88;100.00
72558;BME280;60583;50.094;8.748;2024-02-26T09:22:19;98807.66;;;7.16;100.00
72558;BME280;60583;50.094;8.748;2024-02-26T09:25:04;98807.72;;;7.09;100.00
72558;BME280;60583;50.094;8.748;2024-02-26T09:27:49;98804.88;;;7.04;100.00
72558;BME280;60583;50.094;8.748;2024-02-26T09:30:32;98795.72;;;7.00;100.00
72558;BME280;60583;50.094;8.748;2024-02-26T09:33:16;98784.78;;;6.90;100.00
72558;BME280;60583;50.094;8.748;2024-02-26T09:36:01;98782.75;;;6.92;100.00
72558;BME280;60583;50.094;8.748;2024-02-26T09:38:44;98813.19;;;7.14;100.00
72558;BME280;60583;50.094;8.748;2024-02-26T09:41:28;98809.72;;;7.14;100.00
72558;BME280;60583;50.094;8.748;2024-02-26T09:44:18;98818.25;;;7.16;100.00
72558;BME280;60583;50.094;8.748;2024-02-26T09:47:05;98826.53;;;7.26;100.00
72558;BME280;60583;50.094;8.748;2024-02-26T09:49:50;98829.34;;;7.31;100.00
72558;BME280;60583;50.094;8.748;2024-02-26T09:52:37;98793.75;;;7.20;100.00
72558;BME280;60583;50.094;8.748;2024-02-26T09:55:21;98817.00;;;7.43;100.00
72558;BME280;60583;50.094;8.748;2024-02-26T09:58:05;98809.28;;;7.41;100.00
72558;BME280;60583;50.094;8.748;2024-02-26T10:00:53;98823.34;;;7.66;100.00
72558;BME280;60583;50.094;8.748;2024-02-26T10:03:43;98824.66;;;7.57;100.00
72558;BME280;60583;50.094;8.748;2024-02-26T10:06:28;98802.63;;;7.57;100.00
72558;BME280;60583;50.094;8.748;2024-02-26T10:09:12;98833.28;;;7.71;100.00
72558;BME280;60583;50.094;8.748;2024-02-26T10:11:56;98834.56;;;7.87;100.00
72558;BME280;60583;50.094;8.748;2024-02-26T10:14:40;98785.88;;;7.56;100.00
72558;BME280;60583;50.094;8.748;2024-02-26T10:17:24;98823.22;;;7.80;100.00
72558;BME280;60583;50.094;8.748;2024-02-26T10:20:13;98829.78;;;7.77;100.00
72558;BME280;60583;50.094;8.748;2024-02-26T10:23:02;98820.41;;;7.75;100.00
72558;BME280;60583;50.094;8.748;2024-02-26T10:25:53;98825.13;;;7.72;100.00
72558;BME280;60583;50.094;8.748;2024-02-26T10:28:43;98835.59;;;7.86;100.00
72558;BME280;60583;50.094;8.748;2024-02-26T10:31:27;98821.75;;;8.02;100.00
72558;BME280;60583;50.094;8.748;2024-02-26T10:34:11;98836.50;;;7.98;100.00
72558;BME280;60583;50.094;8.748;2024-02-26T10:36:56;98846.22;;;8.04;100.00
72558;BME280;60583;50.094;8.748;2024-02-26T10:39:46;98799.44;;;8.27;100.00
72558;BME280;60583;50.094;8.748;2024-02-26T10:42:30;98860.53;;;9.05;100.00
72558;BME280;60583;50.094;8.748;2024-02-26T10:45:14;98838.19;;;8.94;98.92
72558;BME280;60583;50.094;8.748;2024-02-26T10:47:58;98842.03;;;8.69;97.94
72558;BME280;60583;50.094;8.748;2024-02-26T10:50:44;98833.09;;;9.23;96.62
72558;BME280;60583;50.094;8.748;2024-02-26T10:53:29;98862.72;;;9.38;95.73
72558;BME280;60583;50.094;8.748;2024-02-26T10:56:15;98835.78;;;9.92;92.99
72558;BME280;60583;50.094;8.748;2024-02-26T10:59:00;98873.44;;;10.19;91.87
72558;BME280;60583;50.094;8.748;2024-02-26T11:01:44;98862.19;;;9.82;92.64
72558;BME280;60583;50.094;8.748;2024-02-26T11:04:31;98852.78;;;9.33;94.43
72558;BME280;60583;50.094;8.748;2024-02-26T11:07:15;98870.00;;;9.31;94.81
72558;BME280;60583;50.094;8.748;2024-02-26T11:10:00;98845.19;;;8.77;96.50
72558;BME280;60583;50.094;8.748;2024-02-26T11:12:45;98881.25;;;9.15;97.87
72558;BME280;60583;50.094;8.748;2024-02-26T11:15:29;98848.22;;;8.81;96.33
72558;BME280;60583;50.094;8.748;2024-02-26T11:18:16;98860.78;;;9.04;96.79
72558;BME280;60583;50.094;8.748;2024-02-26T11:21:03;98866.50;;;9.19;96.53
72558;BME280;60583;50.094;8.748;2024-02-26T11:23:48;98872.53;;;9.26;96.52
72558;BME280;60583;50.094;8.748;2024-02-26T11:26:34;98857.28;;;9.33;97.99
72558;BME280;60583;50.094;8.748;2024-02-26T11:29:21;98865.69;;;9.18;99.20
72558;BME280;60583;50.094;8.748;2024-02-26T11:32:06;98850.53;;;8.89;98.16
72558;BME280;60583;50.094;8.748;2024-02-26T11:34:50;98851.34;;;8.89;98.39
72558;BME280;60583;50.094;8.748;2024-02-26T11:37:34;98886.28;;;9.34;97.66
72558;BME280;60583;50.094;8.748;2024-02-26T11:40:18;98882.53;;;9.65;94.97
72558;BME280;60583;50.094;8.748;2024-02-26T11:43:02;98890.44;;;9.72;94.91
72558;BME280;60583;50.094;8.748;2024-02-26T11:48:31;98858.72;;;9.82;95.49
72558;BME280;60583;50.094;8.748;2024-02-26T11:51:15;98893.00;;;10.01;96.25
72558;BME280;60583;50.094;8.748;2024-02-26T11:53:59;98883.50;;;9.94;94.58
72558;BME280;60583;50.094;8.748;2024-02-26T11:56:45;98883.50;;;10.05;94.79
72558;BME280;60583;50.094;8.748;2024-02-26T11:59:38;98874.16;;;10.14;92.66
72558;BME280;60583;50.094;8.748;2024-02-26T12:02:45;98891.59;;;10.57;89.73
72558;BME280;60583;50.094;8.748;2024-02-26T12:05:33;98859.41;;;10.75;88.82
72558;BME280;60583;50.094;8.748;2024-02-26T12:08:17;98876.78;;;11.06;87.66
72558;BME280;60583;50.094;8.748;2024-02-26T12:11:14;98869.13;;;11.37;85.90
72558;BME280;60583;50.094;8.748;2024-02-26T12:13:58;98864.91;;;12.08;82.94
72558;BME280;60583;50.094;8.748;2024-02-26T12:16:42;98885.03;;;12.54;79.59
72558;BME280;60583;50.094;8.748;2024-02-26T12:19:28;98849.16;;;12.28;79.82
72558;BME280;60583;50.094;8.748;2024-02-26T12:22:14;98889.75;;;13.65;75.58
72558;BME280;60583;50.094;8.748;2024-02-26T12:24:59;98874.22;;;14.41;69.97
72558;BME280;60583;50.094;8.748;2024-02-26T12:27:44;98888.72;;;14.40;70.49
72558;BME280;60583;50.094;8.748;2024-02-26T12:30:30;98837.84;;;13.71;69.71
72558;BME280;60583;50.094;8.748;2024-02-26T12:33:14;98882.00;;;13.37;71.55
72558;BME280;60583;50.094;8.748;2024-02-26T12:35:58;98882.56;;;12.09;76.54
72558;BME280;60583;50.094;8.748;2024-02-26T12:38:42;98857.22;;;12.11;76.16
72558;BME280;60583;50.094;8.748;2024-02-26T12:41:26;98898.03;;;12.07;77.18
72558;BME280;60583;50.094;8.748;2024-02-26T12:44:10;98889.81;;;11.75;77.23
72558;BME280;60583;50.094;8.748;2024-02-26T12:47:01;98877.50;;;11.29;79.72
72558;BME280;60583;50.094;8.748;2024-02-26T12:49:48;98924.66;;;11.40;80.23
72558;BME280;60583;50.094;8.748;2024-02-26T12:52:37;98919.78;;;10.81;83.17
72558;BME280;60583;50.094;8.748;2024-02-26T12:55:22;98913.28;;;10.88;85.18
72558;BME280;60583;50.094;8.748;2024-02-26T12:58:07;98916.19;;;11.15;83.10
72558;BME280;60583;50.094;8.748;2024-02-26T13:00:52;98913.00;;;11.02;83.92
72558;BME280;60583;50.094;8.748;2024-02-26T13:03:36;98910.19;;;11.08;83.73
72558;BME280;60583;50.094;8.748;2024-02-26T13:06:21;98876.84;;;10.94;82.46
72558;BME280;60583;50.094;8.748;2024-02-26T13:09:05;98921.31;;;11.05;84.05
72558;BME280;60583;50.094;8.748;2024-02-26T13:11:54;98898.50;;;10.69;82.55
72558;BME280;60583;50.094;8.748;2024-02-26T13:14:37;98936.72;;;10.75;83.86
72558;BME280;60583;50.094;8.748;2024-02-26T13:17:21;98913.03;;;10.39;85.41
72558;BME280;60583;50.094;8.748;2024-02-26T13:20:09;98933.31;;;10.51;85.18
72558;BME280;60583;50.094;8.748;2024-02-26T13:23:06;98952.06;;;10.45;85.37
72558;BME280;60583;50.094;8.748;2024-02-26T13:25:56;98947.78;;;10.55;86.32
72558;BME280;60583;50.094;8.748;2024-02-26T13:28:40;98926.44;;;10.55;84.37
72558;BME280;60583;50.094;8.748;2024-02-26T13:31:24;98947.13;;;10.88;84.88
72558;BME280;60583;50.094;8.748;2024-02-26T13:34:08;98946.31;;;10.87;83.08
72558;BME280;60583;50.094;8.748;2024-02-26T13:36:56;98940.63;;;10.96;82.49
72558;BME280;60583;50.094;8.748;2024-02-26T13:39:40;98933.38;;;10.79;83.18
72558;BME280;60583;50.094;8.748;2024-02-26T13:42:26;98918.50;;;10.83;84.18
72558;BME280;60583;50.094;8.748;2024-02-26T13:45:10;98925.69;;;10.83;83.12
72558;BME280;60583;50.094;8.748;2024-02-26T13:47:54;98951.16;;;11.02;83.36
72558;BME280;60583;50.094;8.748;2024-02-26T13:50:39;98946.53;;;10.98;83.52
72558;BME280;60583;50.094;8.748;2024-02-26T13:53:23;98958.38;;;10.90;83.41
72558;BME280;60583;50.094;8.748;2024-02-26T13:56:07;98932.56;;;10.79;84.36
72558;BME280;60583;50.094;8.748;2024-02-26T13:58:51;98955.44;;;11.03;83.21
72558;BME280;60583;50.094;8.748;2024-02-26T14:01:35;98962.03;;;11.12;83.00
72558;BME280;60583;50.094;8.748;2024-02-26T14:04:19;98964.81;;;11.06;82.53
72558;BME280;60583;50.094;8.748;2024-02-26T14:07:04;98941.31;;;10.91;83.34
72558;BME280;60583;50.094;8.748;2024-02-26T14:09:48;98952.31;;;11.06;82.86
72558;BME280;60583;50.094;8.748;2024-02-26T14:12:34;98954.91;;;11.18;83.11
72558;BME280;60583;50.094;8.748;2024-02-26T14:15:18;98967.84;;;11.37;82.56
72558;BME280;60583;50.094;8.748;2024-02-26T14:18:02;98947.25;;;11.49;81.27
72558;BME280;60583;50.094;8.748;2024-02-26T14:20:48;98956.34;;;11.65;79.58
72558;BME280;60583;50.094;8.748;2024-02-26T14:23:32;98974.75;;;11.78;79.55
72558;BME280;60583;50.094;8.748;2024-02-26T14:26:15;98971.53;;;11.20;81.11
72558;BME280;60583;50.094;8.748;2024-02-26T14:28:59;98943.16;;;11.30;81.68
72558;BME280;60583;50.094;8.748;2024-02-26T14:31:43;98972.66;;;11.52;81.37
72558;BME280;60583;50.094;8.748;2024-02-26T14:34:27;98941.78;;;11.28;79.96
72558;BME280;60583;50.094;8.748;2024-02-26T14:37:11;98967.66;;;11.27;80.25
72558;BME280;60583;50.094;8.748;2024-02-26T14:39:55;98985.94;;;11.35;80.62
72558;BME280;60583;50.094;8.748;2024-02-26T14:42:40;98921.38;;;10.94;80.34